createdAt,value
2019-03-01T00:01:23.958Z,4.69
2019-03-01T00:03:55.485Z,4.59
2019-03-01T00:06:41.704Z,4.50
2019-03-01T00:09:13.250Z,4.55
2019-03-01T00:12:03.135Z,4.55
2019-03-01T00:14:56.131Z,4.54
2019-03-01T00:17:36.957Z,4.46
2019-03-01T00:20:32.795Z,4.39
2019-03-01T00:23:12.620Z,4.33
2019-03-01T00:25:55.678Z,4.28
2019-03-01T00:28:45.393Z,4.26
2019-03-01T00:31:22.411Z,4.17
2019-03-01T00:34:05.826Z,4.10
2019-03-01T00:36:40.328Z,4.08
2019-03-01T00:39:14.873Z,4.02
2019-03-01T00:41:49.351Z,3.98
2019-03-01T00:44:40.186Z,4.10
2019-03-01T00:47:08.857Z,4.04
2019-03-01T00:49:37.641Z,4.10
2019-03-01T00:52:06.501Z,4.10
2019-03-01T00:54:35.135Z,4.22
2019-03-01T00:57:04.053Z,4.24
2019-03-01T00:59:40.048Z,4.27
2019-03-01T01:02:08.605Z,4.34
2019-03-01T01:04:37.325Z,4.34
2019-03-01T01:07:05.982Z,4.29
2019-03-01T01:09:34.556Z,4.22
2019-03-01T01:12:03.042Z,4.21
2019-03-01T01:14:31.631Z,4.19
2019-03-01T01:17:00.351Z,4.09
2019-03-01T01:19:28.915Z,4.21
2019-03-01T01:21:57.508Z,4.02
2019-03-01T01:24:26.123Z,3.96
2019-03-01T01:26:54.680Z,3.96
2019-03-01T01:29:23.286Z,3.98
2019-03-01T01:31:51.913Z,4.01
2019-03-01T01:34:20.548Z,3.98
2019-03-01T01:36:49.074Z,3.95
2019-03-01T01:39:17.622Z,4.02
2019-03-01T01:41:46.252Z,4.06
2019-03-01T01:44:15.011Z,4.19
2019-03-01T01:46:43.513Z,4.19
2019-03-01T01:49:12.074Z,4.29
2019-03-01T01:51:40.961Z,4.43
2019-03-01T01:54:09.604Z,4.56
2019-03-01T01:56:38.085Z,4.63
2019-03-01T01:59:06.743Z,4.70
2019-03-01T02:01:35.290Z,4.73
2019-03-01T02:04:03.909Z,4.83
2019-03-01T02:06:32.572Z,4.99
2019-03-01T02:09:01.315Z,5.09
2019-03-01T02:11:29.881Z,5.18
2019-03-01T02:13:58.544Z,5.13
2019-03-01T02:16:27.171Z,5.06
2019-03-01T02:18:58.005Z,4.99
2019-03-01T02:21:26.044Z,5.04
2019-03-01T02:23:54.602Z,5.03
2019-03-01T02:26:23.249Z,5.03
2019-03-01T02:28:52.068Z,5.01
2019-03-01T02:31:20.554Z,4.98
2019-03-01T02:33:49.116Z,4.96
2019-03-01T02:36:17.778Z,4.97
2019-03-01T02:38:46.338Z,4.87
2019-03-01T02:41:14.956Z,4.87
2019-03-01T02:43:43.545Z,4.86
2019-03-01T02:46:12.121Z,4.73
2019-03-01T02:48:40.677Z,4.68
2019-03-01T02:51:09.342Z,4.67
2019-03-01T02:53:37.903Z,4.58
2019-03-01T02:56:06.462Z,4.71
2019-03-01T02:58:35.051Z,4.62
2019-03-01T03:01:03.686Z,4.53
2019-03-01T03:03:32.303Z,4.52
2019-03-01T03:06:02.466Z,4.52
2019-03-01T03:08:31.038Z,4.56
2019-03-01T03:10:59.662Z,4.69
2019-03-01T03:13:28.507Z,4.87
2019-03-01T03:15:57.134Z,4.84
2019-03-01T03:18:25.689Z,4.82
2019-03-01T03:20:54.254Z,4.65
2019-03-01T03:23:22.861Z,4.73
2019-03-01T03:25:51.484Z,4.82
2019-03-01T03:28:20.028Z,4.87
2019-03-01T03:30:48.583Z,4.97
2019-03-01T03:33:17.258Z,4.92
2019-03-01T03:35:45.884Z,4.95
2019-03-01T03:38:14.480Z,4.92
2019-03-01T03:40:43.043Z,4.94
2019-03-01T03:43:11.858Z,5.10
2019-03-01T03:45:40.533Z,5.04
2019-03-01T03:48:09.090Z,5.05
2019-03-01T03:50:37.639Z,5.11
2019-03-01T03:53:06.232Z,5.18
2019-03-01T03:55:34.877Z,5.21
2019-03-01T03:58:03.497Z,5.06
2019-03-01T04:00:32.091Z,5.01
2019-03-01T04:03:00.650Z,5.09
2019-03-01T04:05:29.129Z,5.20
2019-03-01T04:07:57.987Z,5.35
2019-03-01T04:10:26.661Z,5.45
2019-03-01T04:12:55.227Z,5.57
2019-03-01T04:15:23.802Z,5.70
2019-03-01T04:17:52.354Z,5.87
2019-03-01T04:20:21.285Z,5.92
2019-03-01T04:22:49.906Z,5.85
2019-03-01T04:25:18.389Z,5.73
2019-03-01T04:27:46.957Z,5.60
2019-03-01T04:30:17.273Z,5.59
2019-03-01T04:32:45.995Z,5.63
2019-03-01T04:35:15.091Z,5.69
2019-03-01T04:37:44.133Z,5.64
2019-03-01T04:40:16.053Z,5.65
2019-03-01T04:42:44.769Z,5.73
2019-03-01T04:45:17.710Z,5.88
2019-03-01T04:47:46.270Z,5.91
2019-03-01T04:50:14.956Z,5.90
2019-03-01T04:52:43.709Z,5.84
2019-03-01T04:55:20.910Z,5.73
2019-03-01T04:57:49.494Z,5.65
2019-03-01T05:00:25.387Z,5.31
2019-03-01T05:02:54.114Z,5.21
2019-03-01T05:05:22.791Z,5.15
2019-03-01T05:07:51.351Z,5.09
2019-03-01T05:10:19.967Z,5.05
2019-03-01T05:12:48.638Z,5.03
2019-03-01T05:15:22.263Z,5.07
2019-03-01T05:17:50.833Z,5.22
2019-03-01T05:20:19.622Z,5.35
2019-03-01T05:22:48.195Z,5.50
2019-03-01T05:25:16.805Z,5.59
2019-03-01T05:27:45.429Z,5.86
2019-03-01T05:30:17.942Z,6.18
2019-03-01T05:32:46.580Z,6.60
2019-03-01T05:35:15.321Z,7.01
2019-03-01T05:37:43.948Z,7.45
2019-03-01T05:40:16.312Z,8.03
2019-03-01T05:42:45.172Z,8.56
2019-03-01T05:45:16.585Z,9.20
2019-03-01T05:47:45.149Z,9.84
2019-03-01T05:50:15.120Z,10.59
2019-03-01T05:52:43.764Z,11.30
2019-03-01T05:55:12.996Z,12.10
2019-03-01T05:58:17.621Z,12.53
2019-03-01T06:00:46.446Z,12.90
2019-03-01T06:03:46.121Z,13.25
2019-03-01T06:06:35.267Z,13.81
2019-03-01T06:09:21.655Z,14.48
2019-03-01T06:12:12.872Z,14.60
2019-03-01T06:14:44.464Z,14.83
2019-03-01T06:17:44.802Z,15.25
2019-03-01T06:20:40.409Z,15.71
2019-03-01T06:23:23.811Z,15.32
2019-03-01T06:26:11.738Z,15.55
2019-03-01T06:28:43.359Z,16.04
2019-03-01T06:31:17.464Z,16.08
2019-03-01T06:34:11.487Z,16.51
2019-03-01T06:37:07.148Z,17.14
2019-03-01T06:39:42.856Z,16.97
2019-03-01T06:42:38.647Z,17.01
2019-03-01T06:45:25.030Z,17.02
2019-03-01T06:47:53.665Z,16.85
2019-03-01T06:50:23.918Z,16.90
2019-03-01T06:52:52.555Z,16.83
2019-03-01T06:55:41.550Z,16.84
2019-03-01T06:58:13.292Z,16.89
2019-03-01T07:00:50.230Z,16.42
2019-03-01T07:03:13.908Z,16.51
2019-03-01T07:05:42.454Z,16.28
2019-03-01T07:08:11.012Z,16.82
2019-03-01T07:10:39.685Z,17.12
2019-03-01T07:13:08.310Z,16.80
2019-03-01T07:15:36.952Z,16.42
2019-03-01T07:18:05.569Z,16.52
2019-03-01T07:20:34.205Z,16.85
2019-03-01T07:23:02.792Z,16.96
2019-03-01T07:25:31.399Z,16.82
2019-03-01T07:28:00.031Z,17.18
2019-03-01T07:30:34.813Z,17.15
2019-03-01T07:33:03.501Z,16.57
2019-03-01T07:35:32.132Z,16.46
2019-03-01T07:38:00.692Z,16.85
2019-03-01T07:40:29.229Z,17.36
2019-03-01T07:42:57.789Z,16.91
2019-03-01T07:45:26.502Z,16.17
2019-03-01T07:47:55.434Z,16.43
2019-03-01T07:50:23.935Z,15.68
2019-03-01T07:52:52.493Z,16.38
2019-03-01T07:55:21.189Z,16.17
2019-03-01T07:57:50.640Z,16.02
2019-03-01T08:00:19.342Z,15.72
2019-03-01T08:02:47.950Z,15.43
2019-03-01T08:05:16.796Z,14.79
2019-03-01T08:07:55.419Z,14.71
2019-03-01T08:10:20.727Z,14.52
2019-03-01T08:12:47.516Z,14.48
2019-03-01T08:15:17.482Z,14.54
2019-03-01T08:17:46.164Z,14.39
2019-03-01T08:20:16.301Z,14.64
2019-03-01T08:22:48.935Z,14.76
2019-03-01T08:25:22.912Z,14.87
2019-03-01T08:27:46.294Z,14.82
2019-03-01T08:30:19.469Z,14.73
2019-03-01T08:32:48.351Z,14.86
2019-03-01T08:35:18.482Z,14.66
2019-03-01T08:37:49.774Z,14.72
2019-03-01T08:40:18.192Z,15.01
2019-03-01T08:42:46.749Z,14.83
2019-03-01T08:45:20.142Z,15.03
2019-03-01T08:47:49.276Z,14.70
2019-03-01T08:50:18.481Z,14.92
2019-03-01T08:52:47.367Z,14.68
2019-03-01T08:55:22.198Z,14.68
2019-03-01T08:57:51.407Z,14.61
2019-03-01T09:00:28.850Z,14.62
2019-03-01T09:03:00.191Z,14.53
2019-03-01T09:05:28.821Z,14.47
2019-03-01T09:07:57.442Z,14.59
2019-03-01T09:10:29.189Z,14.59
2019-03-01T09:12:56.245Z,14.58
2019-03-01T09:15:24.897Z,14.73
2019-03-01T09:17:53.455Z,14.67
2019-03-01T09:20:22.022Z,14.76
2019-03-01T09:22:50.667Z,14.96
2019-03-01T09:25:19.228Z,14.76
2019-03-01T09:27:47.866Z,14.48
2019-03-01T09:30:26.626Z,14.39
2019-03-01T09:32:55.196Z,14.40
2019-03-01T09:35:39.734Z,14.48
2019-03-01T09:38:08.449Z,14.30
2019-03-01T09:40:37.154Z,14.39
2019-03-01T09:43:06.122Z,14.63
2019-03-01T09:45:36.463Z,14.55
2019-03-01T09:48:05.247Z,14.57
2019-03-01T09:50:34.476Z,14.36
2019-03-01T09:53:04.202Z,14.38
2019-03-01T09:55:34.746Z,14.42
2019-03-01T09:58:03.295Z,14.61
2019-03-01T10:00:34.888Z,14.63
2019-03-01T10:03:03.518Z,14.61
2019-03-01T10:05:32.128Z,14.77
2019-03-01T10:08:00.619Z,14.93
2019-03-01T10:10:31.699Z,15.09
2019-03-01T10:13:00.302Z,15.22
2019-03-01T10:15:29.026Z,15.32
2019-03-01T10:17:57.591Z,15.32
2019-03-01T10:20:26.261Z,15.47
2019-03-01T10:22:54.757Z,15.19
2019-03-01T10:25:23.491Z,15.01
2019-03-01T10:27:52.102Z,15.15
2019-03-01T10:30:28.411Z,15.11
2019-03-01T10:32:57.237Z,15.08
2019-03-01T10:35:25.876Z,15.01
2019-03-01T10:37:54.437Z,15.03
2019-03-01T10:40:25.042Z,15.10
2019-03-01T10:42:53.603Z,15.12
2019-03-01T10:45:24.241Z,15.06
2019-03-01T10:47:52.825Z,14.86
2019-03-01T10:50:21.470Z,14.80
2019-03-01T10:52:50.518Z,15.06
2019-03-01T10:55:19.924Z,15.06
2019-03-01T10:57:48.958Z,15.17
2019-03-01T11:00:22.778Z,15.10
2019-03-01T11:02:51.613Z,15.06
2019-03-01T11:05:20.285Z,14.96
2019-03-01T11:07:50.166Z,15.07
2019-03-01T11:10:38.766Z,15.18
2019-03-01T11:13:09.644Z,15.27
2019-03-01T11:15:38.269Z,15.38
2019-03-01T11:18:07.007Z,15.58
2019-03-01T11:20:35.688Z,15.57
2019-03-01T11:23:04.321Z,15.77
2019-03-01T11:25:32.903Z,15.54
2019-03-01T11:28:01.515Z,15.49
2019-03-01T11:30:35.759Z,15.41
2019-03-01T11:33:04.393Z,15.53
2019-03-01T11:35:33.285Z,15.61
2019-03-01T11:38:01.932Z,15.53
2019-03-01T11:40:32.925Z,15.54
2019-03-01T11:43:01.841Z,15.46
2019-03-01T11:45:30.431Z,15.42
2019-03-01T11:47:58.988Z,15.48
2019-03-01T11:50:27.655Z,15.46
2019-03-01T11:52:56.490Z,15.36
2019-03-01T11:55:25.151Z,15.25
2019-03-01T11:57:53.710Z,15.12
2019-03-01T12:00:23.827Z,15.22
2019-03-01T12:02:52.752Z,15.15
2019-03-01T12:05:21.628Z,15.09
2019-03-01T12:07:50.322Z,15.12
2019-03-01T12:10:31.822Z,15.27
2019-03-01T12:13:00.471Z,15.33
2019-03-01T12:15:29.123Z,15.19
2019-03-01T12:17:57.721Z,15.11
2019-03-01T12:20:28.461Z,15.20
2019-03-01T12:22:57.099Z,15.14
2019-03-01T12:25:25.947Z,15.23
2019-03-01T12:27:54.509Z,15.39
2019-03-01T12:30:26.844Z,15.36
2019-03-01T12:32:55.694Z,15.52
2019-03-01T12:35:24.332Z,15.43
2019-03-01T12:37:53.066Z,15.64
2019-03-01T12:40:29.202Z,15.81
2019-03-01T12:42:58.039Z,15.66
2019-03-01T12:45:26.664Z,15.58
2019-03-01T12:47:55.334Z,15.69
2019-03-01T12:50:23.975Z,15.65
2019-03-01T12:52:52.714Z,15.49
2019-03-01T12:55:26.538Z,15.62
2019-03-01T12:57:55.277Z,15.72
2019-03-01T13:00:29.381Z,15.76
2019-03-01T13:02:58.161Z,15.68
2019-03-01T13:05:29.204Z,15.62
2019-03-01T13:07:57.006Z,15.63
2019-03-01T13:10:33.319Z,15.73
2019-03-01T13:13:03.694Z,15.60
2019-03-01T13:15:32.994Z,15.43
2019-03-01T13:18:03.252Z,15.43
2019-03-01T13:20:33.863Z,15.34
2019-03-01T13:23:05.006Z,15.48
2019-03-01T13:25:32.750Z,15.43
2019-03-01T13:28:01.268Z,15.28
2019-03-01T13:30:32.592Z,15.35
2019-03-01T13:33:02.430Z,15.23
2019-03-01T13:35:30.677Z,15.22
2019-03-01T13:37:59.195Z,15.17
2019-03-01T13:40:27.979Z,15.30
2019-03-01T13:42:56.596Z,15.29
2019-03-01T13:45:26.708Z,15.27
2019-03-01T13:47:55.464Z,15.31
2019-03-01T13:50:24.129Z,15.20
2019-03-01T13:52:52.777Z,15.27
2019-03-01T13:55:23.719Z,15.20
2019-03-01T13:57:51.800Z,15.24
2019-03-01T14:00:21.635Z,15.17
2019-03-01T14:02:50.536Z,15.24
2019-03-01T14:05:19.678Z,15.19
2019-03-01T14:07:51.986Z,15.23
2019-03-01T14:10:21.445Z,15.25
2019-03-01T14:12:50.022Z,15.31
2019-03-01T14:15:18.748Z,15.36
2019-03-01T14:17:47.425Z,15.35
2019-03-01T14:20:20.399Z,15.34
2019-03-01T14:22:49.265Z,15.37
2019-03-01T14:25:18.276Z,15.41
2019-03-01T14:27:47.029Z,15.41
2019-03-01T14:30:25.201Z,15.27
2019-03-01T14:32:57.645Z,15.09
2019-03-01T14:35:26.890Z,14.99
2019-03-01T14:37:55.678Z,15.01
2019-03-01T14:40:24.470Z,14.94
2019-03-01T14:42:52.948Z,14.80
2019-03-01T14:45:32.131Z,14.76
2019-03-01T14:48:00.772Z,14.68
2019-03-01T14:50:33.686Z,14.65
2019-03-01T14:53:00.948Z,14.61
2019-03-01T14:55:35.705Z,14.57
2019-03-01T14:58:10.122Z,14.51
2019-03-01T15:00:50.988Z,14.51
2019-03-01T15:03:32.610Z,14.46
2019-03-01T15:06:01.314Z,14.42
2019-03-01T15:08:29.884Z,14.36
2019-03-01T15:11:00.626Z,14.34
2019-03-01T15:13:31.331Z,14.35
2019-03-01T15:16:01.093Z,14.29
2019-03-01T15:18:32.430Z,14.27
2019-03-01T15:21:02.451Z,14.17
2019-03-01T15:23:30.933Z,14.13
2019-03-01T15:25:59.468Z,14.12
2019-03-01T15:28:28.116Z,14.03
2019-03-01T15:30:57.380Z,14.00
2019-03-01T15:33:25.970Z,13.93
2019-03-01T15:35:54.492Z,13.93
2019-03-01T15:38:23.936Z,13.81
2019-03-01T15:40:53.603Z,13.70
2019-03-01T15:43:22.163Z,13.71
2019-03-01T15:45:50.651Z,13.67
2019-03-01T15:48:19.410Z,13.62
2019-03-01T15:50:48.048Z,13.49
2019-03-01T15:53:16.549Z,13.47
2019-03-01T15:55:45.213Z,13.47
2019-03-01T15:58:13.849Z,13.35
2019-03-01T16:00:48.165Z,13.34
2019-03-01T16:03:16.794Z,13.25
2019-03-01T16:05:45.685Z,13.18
2019-03-01T16:08:14.367Z,13.11
2019-03-01T16:10:43.006Z,13.01
2019-03-01T16:13:13.017Z,12.83
2019-03-01T16:15:41.977Z,12.74
2019-03-01T16:18:10.468Z,12.64
2019-03-01T16:20:39.145Z,12.54
2019-03-01T16:23:07.863Z,12.43
2019-03-01T16:25:36.590Z,12.36
2019-03-01T16:28:05.255Z,12.27
2019-03-01T16:30:33.931Z,12.24
2019-03-01T16:33:02.567Z,12.09
2019-03-01T16:35:31.196Z,12.09
2019-03-01T16:38:02.455Z,12.02
2019-03-01T16:40:31.133Z,11.91
2019-03-01T16:42:59.790Z,11.82
2019-03-01T16:45:28.466Z,11.83
2019-03-01T16:47:56.979Z,11.76
2019-03-01T16:50:25.600Z,11.69
2019-03-01T16:52:54.272Z,11.58
2019-03-01T16:55:30.533Z,11.49
2019-03-01T16:58:06.882Z,11.39
2019-03-01T17:00:29.587Z,11.30
2019-03-01T17:03:16.614Z,11.23
2019-03-01T17:05:43.332Z,11.19
2019-03-01T17:08:11.832Z,11.20
2019-03-01T17:10:40.373Z,11.25
2019-03-01T17:13:09.000Z,11.14
2019-03-01T17:15:37.639Z,11.09
2019-03-01T17:18:11.322Z,11.04
2019-03-01T17:20:38.438Z,11.02
2019-03-01T17:23:07.222Z,10.98
2019-03-01T17:25:35.920Z,10.96
2019-03-01T17:28:04.564Z,10.90
2019-03-01T17:30:33.197Z,10.90
2019-03-01T17:33:01.986Z,10.93
2019-03-01T17:35:30.469Z,10.90
2019-03-01T17:37:59.097Z,10.93
2019-03-01T17:40:29.410Z,10.92
2019-03-01T17:42:57.985Z,10.95
2019-03-01T17:45:27.031Z,10.76
2019-03-01T17:47:55.727Z,10.65
2019-03-01T17:50:24.358Z,10.64
2019-03-01T17:52:52.937Z,10.52
2019-03-01T17:55:26.074Z,10.44
2019-03-01T17:57:54.711Z,10.35
2019-03-01T18:00:37.370Z,10.33
2019-03-01T18:03:06.012Z,10.25
2019-03-01T18:05:37.079Z,10.25
2019-03-01T18:08:05.374Z,10.16
2019-03-01T18:10:33.932Z,10.10
2019-03-01T18:13:02.589Z,10.03
2019-03-01T18:15:31.259Z,9.98
2019-03-01T18:17:59.881Z,9.87
2019-03-01T18:20:28.501Z,9.84
2019-03-01T18:22:59.363Z,9.77
2019-03-01T18:25:27.657Z,9.75
2019-03-01T18:27:56.153Z,9.67
2019-03-01T18:30:27.317Z,9.63
2019-03-01T18:32:55.873Z,9.60
2019-03-01T18:35:24.501Z,9.57
2019-03-01T18:37:54.891Z,9.54
2019-03-01T18:40:23.589Z,9.51
2019-03-01T18:42:52.225Z,9.50
2019-03-01T18:45:23.331Z,9.40
2019-03-01T18:47:51.953Z,9.36
2019-03-01T18:50:35.253Z,9.33
2019-03-01T18:53:04.334Z,9.34
2019-03-01T18:55:33.279Z,9.33
2019-03-01T18:58:01.955Z,9.29
2019-03-01T19:00:36.898Z,9.30
2019-03-01T19:03:06.574Z,9.30
2019-03-01T19:05:36.620Z,9.28
2019-03-01T19:08:06.110Z,9.23
2019-03-01T19:10:35.791Z,9.27
2019-03-01T19:13:04.640Z,9.22
2019-03-01T19:15:33.475Z,9.11
2019-03-01T19:18:02.356Z,9.09
2019-03-01T19:20:34.120Z,9.09
2019-03-01T19:23:02.759Z,8.84
2019-03-01T19:25:31.481Z,8.78
2019-03-01T19:28:00.065Z,8.67
2019-03-01T19:30:28.685Z,8.56
2019-03-01T19:32:58.963Z,8.54
2019-03-01T19:35:29.730Z,8.59
2019-03-01T19:37:57.938Z,8.64
2019-03-01T19:40:26.602Z,8.65
2019-03-01T19:42:57.224Z,8.65
2019-03-01T19:45:25.326Z,8.63
2019-03-01T19:47:53.991Z,8.65
2019-03-01T19:50:25.866Z,8.60
2019-03-01T19:52:54.640Z,8.64
2019-03-01T19:55:23.184Z,8.70
2019-03-01T19:57:51.806Z,8.73
2019-03-01T20:00:23.097Z,8.74
2019-03-01T20:02:51.594Z,8.72
2019-03-01T20:05:27.781Z,8.72
2019-03-01T20:07:56.109Z,8.70
2019-03-01T20:10:25.041Z,8.67
2019-03-01T20:12:53.691Z,8.63
2019-03-01T20:15:24.775Z,8.62
2019-03-01T20:17:53.702Z,8.54
2019-03-01T20:20:23.919Z,8.45
2019-03-01T20:22:54.184Z,8.36
2019-03-01T20:25:22.942Z,8.30
2019-03-01T20:27:51.618Z,8.14
2019-03-01T20:30:30.667Z,8.05
2019-03-01T20:32:59.543Z,7.97
2019-03-01T20:35:28.194Z,7.95
2019-03-01T20:38:00.074Z,7.90
2019-03-01T20:40:28.431Z,7.86
2019-03-01T20:43:01.315Z,7.84
2019-03-01T20:45:31.228Z,7.81
2019-03-01T20:48:00.046Z,7.85
2019-03-01T20:50:28.677Z,7.86
2019-03-01T20:52:57.227Z,7.84
2019-03-01T20:55:25.755Z,7.87
2019-03-01T20:57:54.397Z,7.85
2019-03-01T21:00:26.115Z,7.78
2019-03-01T21:02:55.424Z,7.81
2019-03-01T21:05:25.118Z,7.86
2019-03-01T21:08:00.193Z,7.89
2019-03-01T21:10:30.130Z,7.95
2019-03-01T21:12:58.699Z,7.98
2019-03-01T21:15:27.291Z,7.91
2019-03-01T21:17:56.850Z,7.97
2019-03-01T21:20:25.976Z,8.01
2019-03-01T21:22:54.500Z,8.00
2019-03-01T21:25:24.319Z,8.01
2019-03-01T21:27:52.949Z,7.97
2019-03-01T21:30:29.806Z,7.87
2019-03-01T21:32:58.431Z,7.88
2019-03-01T21:35:27.106Z,7.82
2019-03-01T21:37:55.679Z,7.79
2019-03-01T21:40:24.159Z,7.78
2019-03-01T21:42:57.304Z,7.79
2019-03-01T21:45:24.229Z,7.72
2019-03-01T21:47:52.801Z,7.72
2019-03-01T21:50:21.482Z,7.88
2019-03-01T21:52:50.113Z,7.93
2019-03-01T21:55:28.645Z,7.97
2019-03-01T21:57:57.639Z,7.98
2019-03-01T22:00:31.500Z,7.85
2019-03-01T22:03:00.481Z,7.74
2019-03-01T22:05:29.105Z,7.63
2019-03-01T22:07:57.608Z,7.55
2019-03-01T22:10:26.160Z,7.49
2019-03-01T22:12:56.874Z,7.43
2019-03-01T22:15:29.364Z,7.37
2019-03-01T22:17:58.137Z,7.34
2019-03-01T22:20:26.706Z,7.31
2019-03-01T22:22:55.344Z,7.30
2019-03-01T22:25:24.012Z,7.24
2019-03-01T22:27:52.508Z,7.20
2019-03-01T22:30:31.699Z,7.09
2019-03-01T22:33:00.358Z,7.05
2019-03-01T22:35:29.000Z,7.08
2019-03-01T22:38:00.851Z,7.10
2019-03-01T22:40:29.203Z,7.17
2019-03-01T22:42:58.098Z,7.08
2019-03-01T22:45:26.703Z,7.13
2019-03-01T22:47:55.339Z,7.08
2019-03-01T22:50:23.976Z,7.01
2019-03-01T22:52:52.508Z,6.92
2019-03-01T22:55:21.534Z,6.86
2019-03-01T22:57:50.173Z,6.75
2019-03-01T23:00:47.566Z,6.75
2019-03-01T23:03:18.932Z,6.67
2019-03-01T23:05:47.341Z,6.76
2019-03-01T23:08:16.118Z,6.66
2019-03-01T23:10:44.729Z,6.65
2019-03-01T23:13:16.824Z,6.70
2019-03-01T23:15:44.582Z,6.78
2019-03-01T23:18:13.408Z,6.83
2019-03-01T23:20:42.557Z,6.88
2019-03-01T23:23:11.158Z,6.90
2019-03-01T23:25:42.925Z,6.93
2019-03-01T23:28:10.027Z,6.95
2019-03-01T23:30:38.797Z,6.98
2019-03-01T23:33:07.426Z,6.93
2019-03-01T23:35:36.092Z,6.88
2019-03-01T23:38:05.072Z,6.78
2019-03-01T23:40:35.866Z,6.82
2019-03-01T23:43:03.922Z,6.83
2019-03-01T23:45:32.598Z,6.64
2019-03-01T23:48:01.090Z,6.59
2019-03-01T23:50:31.485Z,6.48
2019-03-01T23:53:00.167Z,6.37
2019-03-01T23:55:28.865Z,6.31
2019-03-01T23:58:06.102Z,6.50
